Time;durP1;ratioP1;P1;durP2;ratioP2;P2;SDS_P1;SDS_P2;PMS_P1;PMS_P2;Temp;Humidity;BMP_temperature;BMP_pressure;BME280_temperature;BME280_humidity;BME280_pressure;Samples;Min_cycle;Max_cycle;Signal;HPM_P1;HPM_P2
2023/12/20 00:00:01;;;;;;;6.78;5.55;;;;;;;4.05;94.03;98418.56;4977184;28;20034;-82
2023/12/20 00:02:26;;;;;;;5.68;4.88;;;;;;;4.13;93.70;98428.84;5006561;28;20061;-83
2023/12/20 00:04:52;;;;;;;6.50;5.25;;;;;;;4.05;93.77;98413.28;4986325;28;20033;-82
2023/12/20 00:07:17;;;;;;;5.72;4.55;;;;;;;4.17;93.45;98427.38;4989717;28;20034;-83
2023/12/20 00:09:42;;;;;;;7.10;5.18;;;;;;;4.12;94.25;98416.66;4973789;28;20030;-82
2023/12/20 00:12:08;;;;;;;6.80;5.20;;;;;;;4.21;93.87;98423.28;5003894;28;20037;-82
2023/12/20 00:14:33;;;;;;;6.13;5.07;;;;;;;4.22;93.70;98429.34;5001426;28;20036;-82
2023/12/20 00:16:58;;;;;;;8.10;5.30;;;;;;;4.18;93.54;98433.47;5001052;28;20037;-82
2023/12/20 00:19:24;;;;;;;6.35;5.00;;;;;;;4.25;94.39;98427.13;4999387;28;20030;-81
2023/12/20 00:21:49;;;;;;;7.00;5.15;;;;;;;4.16;93.40;98428.41;4999663;28;21233;-82
2023/12/20 00:24:14;;;;;;;6.40;4.85;;;;;;;4.23;93.46;98413.31;4983025;28;20409;-82
2023/12/20 00:26:40;;;;;;;6.05;5.43;;;;;;;4.28;93.96;98415.31;4984270;28;20034;-82
2023/12/20 00:29:05;;;;;;;6.35;4.80;;;;;;;4.32;93.46;98409.38;4968034;28;20029;-82
2023/12/20 00:31:30;;;;;;;6.97;6.10;;;;;;;4.23;93.73;98412.50;4984856;28;20034;-82
2023/12/20 00:33:56;;;;;;;6.53;5.00;;;;;;;4.37;93.38;98420.06;5001291;28;20053;-83
2023/12/20 00:36:21;;;;;;;6.85;5.43;;;;;;;4.21;93.46;98425.94;4979032;28;20026;-81
2023/12/20 00:38:48;;;;;;;6.70;5.00;;;;;;;4.36;93.34;98428.22;5002703;28;20040;-82
2023/12/20 00:41:13;;;;;;;6.50;5.07;;;;;;;4.30;93.39;98402.69;5006079;28;20031;-82
2023/12/20 00:43:38;;;;;;;5.28;4.47;;;;;;;4.44;92.89;98406.78;4991080;28;20482;-82
2023/12/20 00:46:04;;;;;;;7.18;4.78;;;;;;;4.30;93.27;98390.25;5004500;28;20099;-83
2023/12/20 00:48:32;;;;;;;5.85;4.80;;;;;;;4.42;93.87;98419.41;4984963;28;20080;-83
2023/12/20 00:50:57;;;;;;;6.70;4.95;;;;;;;4.34;93.53;98414.44;5011969;28;20029;-82
2023/12/20 00:53:23;;;;;;;4.75;4.30;;;;;;;4.42;92.97;98420.22;5005661;28;20040;-83
2023/12/20 00:55:48;;;;;;;5.70;4.68;;;;;;;4.35;93.33;98414.19;4990559;28;20573;-82
2023/12/20 00:58:15;;;;;;;6.80;4.45;;;;;;;4.45;93.38;98422.44;5010491;28;20030;-82
2023/12/20 01:00:42;;;;;;;5.57;4.60;;;;;;;4.47;92.86;98424.84;5006094;28;20049;-83
2023/12/20 01:03:07;;;;;;;6.90;5.07;;;;;;;4.33;92.90;98418.06;5011401;28;20064;-83
2023/12/20 01:05:32;;;;;;;4.82;3.95;;;;;;;4.52;92.59;98417.88;5007649;28;20471;-82
2023/12/20 01:07:58;;;;;;;5.60;4.40;;;;;;;4.52;92.64;98412.59;4992086;28;20044;-82
2023/12/20 01:10:23;;;;;;;6.78;4.38;;;;;;;4.41;93.31;98417.81;5012184;28;20504;-82
2023/12/20 01:12:49;;;;;;;5.35;4.70;;;;;;;4.39;93.01;98402.16;4991338;28;20177;-83
2023/12/20 01:15:14;;;;;;;6.75;5.57;;;;;;;4.49;93.66;98405.13;4992405;28;20041;-82
2023/12/20 01:17:39;;;;;;;5.43;4.68;;;;;;;4.49;93.63;98417.50;5009372;28;20112;-82
2023/12/20 01:20:05;;;;;;;4.68;4.28;;;;;;;4.50;93.92;98403.25;5009750;28;20079;-82
2023/12/20 01:22:31;;;;;;;5.65;4.85;;;;;;;4.48;93.38;98392.09;5010267;28;20049;-82
2023/12/20 01:24:56;;;;;;;5.28;4.78;;;;;;;4.65;92.86;98411.66;4995649;28;20076;-82
2023/12/20 01:27:22;;;;;;;6.30;5.60;;;;;;;4.43;94.03;98405.97;5016702;28;20041;-83
2023/12/20 01:29:47;;;;;;;10.48;4.90;;;;;;;4.51;93.19;98399.59;4994846;28;20065;-82
2023/12/20 01:32:12;;;;;;;5.45;4.72;;;;;;;4.44;93.53;98394.38;4985699;28;20022;-82
2023/12/20 01:34:38;;;;;;;6.45;5.07;;;;;;;4.45;93.24;98389.91;4988490;28;20033;-82
2023/12/20 01:37:04;;;;;;;5.55;4.95;;;;;;;4.47;93.79;98398.44;4991699;28;20103;-82
2023/12/20 01:39:29;;;;;;;7.63;4.88;;;;;;;4.56;93.30;98405.81;5009006;28;20086;-82
2023/12/20 01:41:54;;;;;;;7.78;4.80;;;;;;;4.42;93.78;98408.84;5007256;28;20048;-82
2023/12/20 01:44:20;;;;;;;9.38;6.28;;;;;;;4.49;93.51;98407.75;5019880;28;20136;-82
2023/12/20 01:46:46;;;;;;;5.97;5.00;;;;;;;4.52;93.62;98398.59;4997788;28;20041;-82
2023/12/20 01:49:12;;;;;;;9.48;5.60;;;;;;;4.53;93.24;98403.63;5010445;28;20018;-82
2023/12/20 01:51:38;;;;;;;7.10;5.95;;;;;;;4.50;92.94;98400.63;5009276;28;20490;-82
2023/12/20 01:54:04;;;;;;;9.13;6.30;;;;;;;4.49;93.78;98402.47;5011096;28;20041;-82
2023/12/20 01:56:31;;;;;;;6.95;5.50;;;;;;;4.65;92.93;98421.41;5011039;28;20053;-83
2023/12/20 01:58:57;;;;;;;7.65;5.18;;;;;;;4.68;94.11;98415.66;5017041;28;20034;-82
2023/12/20 02:01:22;;;;;;;7.25;5.75;;;;;;;4.62;94.05;98408.63;5004587;28;20033;-82
2023/12/20 02:03:48;;;;;;;8.55;6.35;;;;;;;4.55;94.28;98420.09;4995677;28;20496;-82
2023/12/20 02:06:14;;;;;;;6.70;5.60;;;;;;;4.53;94.05;98416.84;5011308;28;20026;-82
2023/12/20 02:08:39;;;;;;;5.70;5.03;;;;;;;4.62;94.00;98421.84;4985361;28;20038;-82
2023/12/20 02:11:05;;;;;;;6.78;4.75;;;;;;;4.52;93.93;98406.50;5024728;28;20060;-82
2023/12/20 02:13:30;;;;;;;7.55;5.40;;;;;;;4.53;93.85;98408.94;5011731;28;20478;-82
2023/12/20 02:15:56;;;;;;;6.78;5.05;;;;;;;4.61;94.76;98420.25;5010983;28;20034;-82
2023/12/20 02:18:22;;;;;;;9.10;5.30;;;;;;;4.61;93.98;98431.59;5018444;28;20381;-82
2023/12/20 02:20:47;;;;;;;8.82;4.90;;;;;;;4.45;94.88;98411.06;5009877;28;20037;-82
2023/12/20 02:23:13;;;;;;;6.38;4.80;;;;;;;4.51;94.10;98404.88;4992353;28;20040;-82
2023/12/20 02:25:38;;;;;;;6.13;4.78;;;;;;;4.66;94.15;98417.72;5009572;28;20037;-82
2023/12/20 02:28:04;;;;;;;10.48;5.03;;;;;;;4.55;94.61;98406.88;5007013;28;20065;-82
2023/12/20 02:30:30;;;;;;;6.57;4.68;;;;;;;4.39;93.85;98390.81;4993032;28;20080;-82
2023/12/20 02:32:56;;;;;;;6.07;4.45;;;;;;;4.44;94.51;98415.53;5009751;28;20474;-82
2023/12/20 02:35:21;;;;;;;7.72;4.43;;;;;;;4.45;94.25;98409.22;4988121;28;20038;-82
2023/12/20 02:37:46;;;;;;;6.57;4.35;;;;;;;4.49;94.54;98428.91;5004881;28;20501;-82
2023/12/20 02:40:12;;;;;;;8.40;3.90;;;;;;;4.40;93.59;98402.97;5007310;28;20080;-82
2023/12/20 02:42:37;;;;;;;5.55;4.22;;;;;;;4.40;93.82;98414.34;5009414;28;20080;-82
2023/12/20 02:45:03;;;;;;;6.63;3.75;;;;;;;4.36;93.64;98399.97;5004583;28;20038;-81
2023/12/20 02:47:29;;;;;;;5.95;3.50;;;;;;;4.29;93.83;98420.34;5005811;28;21673;-82
2023/12/20 02:49:55;;;;;;;10.95;4.47;;;;;;;4.35;93.42;98429.22;4992263;28;20033;-82
2023/12/20 02:52:22;;;;;;;5.97;3.47;;;;;;;4.35;94.14;98426.59;5003239;28;20022;-82
2023/12/20 02:54:47;;;;;;;8.93;4.50;;;;;;;4.38;93.46;98420.88;5010192;28;20054;-82
2023/12/20 02:57:12;;;;;;;6.93;3.97;;;;;;;4.38;93.69;98416.41;4989849;28;20088;-82
2023/12/20 02:59:38;;;;;;;7.35;3.97;;;;;;;4.44;93.95;98420.81;5007389;28;20384;-82
2023/12/20 03:02:03;;;;;;;7.13;3.50;;;;;;;4.32;93.61;98409.38;5008694;28;20036;-82
2023/12/20 03:04:28;;;;;;;9.95;3.50;;;;;;;4.36;93.87;98412.38;4975802;28;20041;-82
2023/12/20 03:06:54;;;;;;;8.40;4.22;;;;;;;4.40;93.64;98411.72;5012587;28;20042;-82
2023/12/20 03:09:19;;;;;;;10.18;4.63;;;;;;;4.54;93.22;98418.44;4990102;28;20040;-82
2023/12/20 03:11:44;;;;;;;4.72;3.58;;;;;;;4.31;92.57;98396.34;5005978;28;20124;-82
2023/12/20 03:14:10;;;;;;;9.90;3.60;;;;;;;4.34;93.14;98399.38;5007961;28;20525;-82
2023/12/20 03:16:35;;;;;;;8.55;2.83;;;;;;;4.22;92.52;98393.19;4993363;28;20037;-83
2023/12/20 03:19:00;;;;;;;8.98;3.65;;;;;;;4.18;93.02;98389.38;4975605;28;20110;-81
2023/12/20 03:21:26;;;;;;;10.68;4.10;;;;;;;4.32;92.02;98408.56;4989814;28;20045;-82
2023/12/20 03:23:51;;;;;;;10.52;3.00;;;;;;;4.38;92.13;98423.53;5009138;28;20050;-82
2023/12/20 03:26:16;;;;;;;7.97;2.88;;;;;;;4.26;91.87;98404.16;5010836;28;20034;-82
2023/12/20 03:28:42;;;;;;;15.90;5.82;;;;;;;4.33;92.01;98421.53;5012425;28;20481;-82
2023/12/20 03:31:09;;;;;;;5.68;2.80;;;;;;;4.27;91.56;98424.25;5007720;28;20062;-82
2023/12/20 03:33:34;;;;;;;8.95;3.58;;;;;;;4.34;92.26;98441.66;4989232;28;20041;-82
2023/12/20 03:36:00;;;;;;;9.25;3.50;;;;;;;4.34;92.21;98431.09;5002767;28;20125;-82
2023/12/20 03:38:25;;;;;;;6.50;2.90;;;;;;;4.30;91.90;98421.97;4994270;28;20037;-82
2023/12/20 03:40:51;;;;;;;6.90;2.85;;;;;;;4.44;91.85;98428.72;5008871;28;20072;-82
2023/12/20 03:43:16;;;;;;;13.05;4.38;;;;;;;4.23;92.07;98407.22;4993619;28;20140;-82
2023/12/20 03:45:44;;;;;;;6.72;3.13;;;;;;;4.28;92.31;98405.53;5010591;28;20026;-82
2023/12/20 03:48:10;;;;;;;7.47;3.95;;;;;;;4.23;91.74;98405.41;4988997;28;20132;-82
2023/12/20 03:50:35;;;;;;;8.85;3.42;;;;;;;4.30;92.05;98406.09;4992056;28;20446;-82
2023/12/20 03:53:01;;;;;;;7.05;2.70;;;;;;;4.46;91.53;98415.28;4989832;28;20417;-82
2023/12/20 03:55:26;;;;;;;6.82;2.63;;;;;;;4.33;91.89;98407.50;5006436;28;20051;-82
2023/12/20 03:57:52;;;;;;;9.45;2.95;;;;;;;4.43;91.68;98427.09;4990035;28;20129;-82
2023/12/20 04:00:17;;;;;;;5.20;2.63;;;;;;;4.23;91.86;98428.34;4975142;28;20034;-82
2023/12/20 04:02:43;;;;;;;6.60;3.03;;;;;;;4.34;91.44;98444.28;5019904;28;20088;-82
2023/12/20 04:05:09;;;;;;;6.90;3.08;;;;;;;4.41;91.11;98442.38;5012422;28;20091;-82
2023/12/20 04:07:36;;;;;;;8.32;2.92;;;;;;;4.17;91.64;98447.72;5009207;28;20428;-82
2023/12/20 04:10:01;;;;;;;10.02;3.50;;;;;;;4.12;91.77;98435.16;5003016;28;20034;-82
2023/12/20 04:12:28;;;;;;;10.93;3.45;;;;;;;4.30;91.97;98448.38;4991803;28;20056;-82
2023/12/20 04:14:53;;;;;;;12.05;3.45;;;;;;;4.19;91.43;98419.25;5011147;28;20049;-82
2023/12/20 04:17:20;;;;;;;5.97;3.10;;;;;;;4.27;91.97;98438.25;5017694;28;20455;-82
2023/12/20 04:19:45;;;;;;;6.85;3.38;;;;;;;4.21;91.92;98433.03;5014421;28;20034;-82
2023/12/20 04:22:10;;;;;;;15.98;4.70;;;;;;;4.31;91.50;98434.16;4987446;28;20046;-82
2023/12/20 04:24:36;;;;;;;12.38;4.32;;;;;;;4.44;91.40;98436.66;5004690;28;20121;-82
2023/12/20 04:27:02;;;;;;;13.27;4.13;;;;;;;4.45;91.31;98427.72;5008696;28;20030;-82
2023/12/20 04:29:27;;;;;;;10.70;3.28;;;;;;;4.37;91.63;98433.28;5005682;28;20038;-82
2023/12/20 04:31:52;;;;;;;6.80;4.07;;;;;;;4.30;91.91;98421.97;5005708;28;20464;-81
2023/12/20 04:34:18;;;;;;;6.50;3.53;;;;;;;4.36;91.86;98449.34;4991433;28;20033;-82
2023/12/20 04:36:43;;;;;;;8.45;3.42;;;;;;;4.24;91.63;98446.63;5009190;28;20085;-82
2023/12/20 04:39:10;;;;;;;7.75;3.63;;;;;;;4.33;91.48;98433.94;5008775;28;20029;-82
2023/12/20 04:41:35;;;;;;;6.47;3.80;;;;;;;4.32;91.32;98425.22;5006438;28;20453;-82
2023/12/20 04:44:01;;;;;;;13.70;3.60;;;;;;;4.33;90.93;98424.19;5009762;28;20029;-82
2023/12/20 04:46:26;;;;;;;11.38;4.05;;;;;;;4.32;90.80;98446.34;5009548;28;20026;-82
2023/12/20 04:48:51;;;;;;;13.85;4.95;;;;;;;4.07;90.97;98411.22;5008187;28;20478;-82
2023/12/20 04:51:17;;;;;;;9.10;4.50;;;;;;;4.43;90.28;98431.59;5004237;28;20441;-82
2023/12/20 04:53:42;;;;;;;13.85;4.60;;;;;;;4.28;90.69;98439.88;5006557;28;20041;-82
2023/12/20 04:56:08;;;;;;;9.85;4.07;;;;;;;4.16;90.30;98417.84;5004945;28;20038;-81
2023/12/20 04:58:33;;;;;;;6.07;3.42;;;;;;;4.27;91.11;98419.78;5010175;28;20044;-81
2023/12/20 05:00:58;;;;;;;11.48;4.50;;;;;;;4.37;90.81;98424.53;4986139;28;20026;-82
2023/12/20 05:03:24;;;;;;;10.88;4.20;;;;;;;4.39;90.74;98425.16;4987761;28;20088;-82
2023/12/20 05:05:49;;;;;;;8.57;4.18;;;;;;;4.29;90.64;98422.19;5008124;28;20034;-81
2023/12/20 05:08:15;;;;;;;12.98;3.35;;;;;;;4.29;90.15;98401.06;5004045;28;20526;-81
2023/12/20 05:10:40;;;;;;;9.18;4.13;;;;;;;4.31;89.86;98413.03;5001839;28;20036;-81
2023/12/20 05:13:06;;;;;;;8.48;3.10;;;;;;;4.30;90.42;98406.09;4999964;28;20581;-82
2023/12/20 05:15:31;;;;;;;17.27;4.40;;;;;;;4.33;89.89;98410.97;4999371;28;20040;-82
2023/12/20 05:17:57;;;;;;;13.48;3.60;;;;;;;4.35;89.90;98426.59;4986750;28;20057;-82
2023/12/20 05:20:23;;;;;;;9.88;4.60;;;;;;;4.25;89.41;98395.41;4988358;28;20046;-82
2023/12/20 05:22:48;;;;;;;8.68;2.58;;;;;;;4.29;89.12;98408.97;4998245;28;20445;-82
2023/12/20 05:25:13;;;;;;;9.18;3.90;;;;;;;4.19;90.59;98412.13;5006654;28;20116;-82
2023/12/20 05:27:39;;;;;;;9.50;3.83;;;;;;;4.15;89.59;98389.03;5008365;28;20470;-82
2023/12/20 05:30:05;;;;;;;12.15;4.13;;;;;;;4.28;89.45;98397.59;5015066;28;20030;-82
2023/12/20 05:32:31;;;;;;;12.95;3.05;;;;;;;4.18;89.16;98385.94;5005658;28;20037;-81
2023/12/20 05:34:56;;;;;;;8.75;3.15;;;;;;;4.13;89.50;98383.16;5006537;28;20029;-82
2023/12/20 05:37:21;;;;;;;9.23;3.00;;;;;;;4.32;88.97;98405.91;5010571;28;20029;-82
2023/12/20 05:39:47;;;;;;;14.20;3.70;;;;;;;4.17;89.31;98398.31;5014595;28;20401;-82
2023/12/20 05:42:12;;;;;;;8.55;3.33;;;;;;;4.34;88.63;98417.88;5010782;28;20482;-82
2023/12/20 05:44:38;;;;;;;10.85;4.00;;;;;;;4.19;88.65;98380.44;5008783;28;20457;-82
2023/12/20 05:47:03;;;;;;;9.85;3.97;;;;;;;4.00;89.00;98376.16;5010443;28;20036;-81
2023/12/20 05:49:28;;;;;;;19.27;3.80;;;;;;;4.16;88.41;98396.72;5023603;28;20056;-82
2023/12/20 05:51:54;;;;;;;12.23;4.95;;;;;;;3.94;89.41;98390.22;4993437;28;20026;-82
2023/12/20 05:54:19;;;;;;;11.50;3.30;;;;;;;4.16;89.46;98394.09;5010692;28;20493;-81
2023/12/20 05:56:45;;;;;;;10.50;4.07;;;;;;;4.05;88.98;98400.06;5010710;28;20105;-82
2023/12/20 05:59:10;;;;;;;22.15;3.78;;;;;;;4.17;89.29;98402.81;4990320;28;20049;-81
2023/12/20 06:01:35;;;;;;;13.35;3.63;;;;;;;4.11;88.86;98399.19;5009414;28;20045;-81
2023/12/20 06:04:01;;;;;;;15.95;4.03;;;;;;;4.14;89.17;98400.59;5003823;28;20035;-82
2023/12/20 06:06:26;;;;;;;13.93;3.55;;;;;;;4.11;88.55;98408.94;5013143;28;20030;-82
2023/12/20 06:08:51;;;;;;;11.90;3.53;;;;;;;4.16;89.23;98420.50;4971529;28;20501;-82
2023/12/20 06:11:17;;;;;;;26.60;4.10;;;;;;;4.11;88.87;98403.66;5010216;28;20044;-82
2023/12/20 06:13:42;;;;;;;9.82;4.32;;;;;;;4.17;88.77;98411.53;4995637;28;20042;-82
2023/12/20 06:16:08;;;;;;;11.48;3.35;;;;;;;4.17;88.91;98403.59;5010313;28;20041;-82
2023/12/20 06:18:33;;;;;;;9.13;3.30;;;;;;;4.24;88.56;98408.81;4993935;28;20117;-82
2023/12/20 06:20:58;;;;;;;11.40;4.53;;;;;;;4.07;89.00;98402.50;5012148;28;20038;-82
2023/12/20 06:23:24;;;;;;;14.07;4.22;;;;;;;4.17;88.94;98400.19;4992185;28;20387;-82
2023/12/20 06:25:49;;;;;;;15.38;5.15;;;;;;;4.15;88.44;98389.81;5010819;28;20037;-82
2023/12/20 06:28:15;;;;;;;12.93;4.03;;;;;;;4.21;88.92;98380.22;4975587;28;20033;-82
2023/12/20 06:30:40;;;;;;;12.45;5.35;;;;;;;4.19;88.25;98377.81;5013803;28;20388;-82
2023/12/20 06:33:06;;;;;;;6.72;2.65;;;;;;;4.13;88.75;98410.34;5009571;28;20504;-82
2023/12/20 06:35:32;;;;;;;7.15;3.75;;;;;;;4.19;88.83;98400.75;5012592;28;20064;-82
2023/12/20 06:37:58;;;;;;;14.75;3.80;;;;;;;4.20;88.56;98403.19;5009059;28;20041;-82
2023/12/20 06:40:23;;;;;;;14.20;5.10;;;;;;;4.13;88.89;98399.00;5011548;28;20489;-82
2023/12/20 06:42:48;;;;;;;12.80;4.40;;;;;;;4.23;88.92;98401.94;5011182;28;20143;-82
2023/12/20 06:45:14;;;;;;;10.32;3.53;;;;;;;4.17;88.78;98390.41;5012315;28;20064;-81
2023/12/20 06:47:39;;;;;;;18.65;4.07;;;;;;;4.20;88.21;98397.09;5012036;28;20485;-82
2023/12/20 06:50:05;;;;;;;14.05;3.80;;;;;;;4.10;88.67;98384.41;5011233;28;20122;-81
2023/12/20 06:52:30;;;;;;;13.35;3.78;;;;;;;4.05;88.43;98378.94;4983835;28;20026;-82
2023/12/20 06:54:56;;;;;;;9.68;3.05;;;;;;;4.02;88.69;98399.72;4996354;28;20041;-81
2023/12/20 06:57:21;;;;;;;5.45;2.55;;;;;;;4.05;88.13;98375.50;5010139;28;20041;-81
2023/12/20 06:59:46;;;;;;;7.43;2.65;;;;;;;4.09;88.14;98368.75;4978944;28;20061;-81
2023/12/20 07:02:12;;;;;;;17.17;3.42;;;;;;;4.15;87.90;98386.38;4990605;28;20481;-81
2023/12/20 07:04:41;;;;;;;7.82;3.50;;;;;;;4.10;87.77;98391.50;5008721;28;20489;-82
2023/12/20 07:07:07;;;;;;;18.33;4.45;;;;;;;4.11;88.12;98396.56;5006027;28;20029;-82
2023/12/20 07:09:32;;;;;;;8.80;3.60;;;;;;;3.97;88.33;98381.88;5008277;28;20034;-82
2023/12/20 07:11:58;;;;;;;12.32;3.72;;;;;;;4.24;88.38;98408.81;5010432;28;20029;-82
2023/12/20 07:14:23;;;;;;;7.95;3.40;;;;;;;4.11;88.62;98409.75;5011263;28;20068;-82
2023/12/20 07:16:49;;;;;;;13.63;3.92;;;;;;;4.12;89.06;98408.75;5011793;28;20042;-82
2023/12/20 07:19:14;;;;;;;14.77;4.72;;;;;;;4.14;89.63;98401.41;5012567;28;20072;-82
2023/12/20 07:21:39;;;;;;;16.70;3.95;;;;;;;4.20;89.51;98408.47;5006927;28;20041;-82
2023/12/20 07:24:05;;;;;;;10.45;3.42;;;;;;;4.15;89.52;98410.94;5012548;28;20066;-82
2023/12/20 07:26:30;;;;;;;17.70;4.10;;;;;;;4.04;90.21;98406.38;5010934;28;20045;-82
2023/12/20 07:28:56;;;;;;;13.38;4.57;;;;;;;3.93;89.37;98391.28;4992313;28;20038;-82
2023/12/20 07:31:21;;;;;;;12.77;3.38;;;;;;;4.02;89.35;98418.97;5009413;28;20029;-82
2023/12/20 07:33:47;;;;;;;15.43;4.47;;;;;;;4.06;90.05;98419.38;5010967;28;20042;-82
2023/12/20 07:36:12;;;;;;;10.85;4.47;;;;;;;4.14;89.19;98419.09;5009128;28;20409;-82
2023/12/20 07:38:38;;;;;;;18.52;4.45;;;;;;;4.15;89.14;98416.22;5003730;28;20079;-81
2023/12/20 07:41:03;;;;;;;14.85;4.28;;;;;;;4.06;89.69;98420.19;4990562;28;20033;-82
2023/12/20 07:43:29;;;;;;;12.75;4.82;;;;;;;4.01;89.42;98408.66;5010950;28;20421;-82
2023/12/20 07:45:54;;;;;;;16.48;5.55;;;;;;;4.20;89.63;98437.50;4988223;28;20037;-82
2023/12/20 07:48:19;;;;;;;20.35;4.47;;;;;;;4.23;89.39;98444.19;4989674;28;20177;-81
2023/12/20 07:50:45;;;;;;;15.07;4.95;;;;;;;4.13;89.37;98447.31;5008123;28;20041;-82
2023/12/20 07:53:10;;;;;;;13.82;4.63;;;;;;;4.13;89.77;98434.13;5010397;28;20492;-81
2023/12/20 07:55:36;;;;;;;23.08;5.60;;;;;;;4.13;89.84;98449.19;5013028;28;20474;-81
2023/12/20 07:58:01;;;;;;;13.90;5.57;;;;;;;4.09;89.75;98437.41;5010830;28;20532;-82
2023/12/20 08:00:27;;;;;;;6.78;4.05;;;;;;;4.25;89.02;98445.59;5011592;28;20460;-81
2023/12/20 08:02:52;;;;;;;15.75;4.97;;;;;;;4.18;89.23;98433.47;5002752;28;20030;-81
2023/12/20 08:05:18;;;;;;;19.05;5.53;;;;;;;4.16;89.17;98441.63;4973985;28;20489;-82
2023/12/20 08:07:43;;;;;;;19.92;5.22;;;;;;;4.21;89.08;98444.41;5010009;28;20529;-82
2023/12/20 08:10:09;;;;;;;9.25;4.63;;;;;;;4.28;89.14;98453.06;5011177;28;20021;-81
2023/12/20 08:12:34;;;;;;;13.00;4.20;;;;;;;4.29;89.24;98459.16;5010577;28;20030;-82
2023/12/20 08:15:00;;;;;;;13.60;5.50;;;;;;;4.24;88.15;98449.25;5010639;28;20843;-82
2023/12/20 08:17:25;;;;;;;12.80;4.75;;;;;;;4.18;89.00;98449.31;4978512;28;20034;-81
2023/12/20 08:19:51;;;;;;;16.92;5.75;;;;;;;4.20;88.98;98455.19;4993736;28;20503;-82
2023/12/20 08:22:17;;;;;;;15.98;5.30;;;;;;;4.03;89.35;98428.53;4993731;28;20049;-81
2023/12/20 08:24:43;;;;;;;19.88;5.65;;;;;;;4.15;89.25;98444.47;4994470;28;20034;-81
2023/12/20 08:27:09;;;;;;;16.25;5.25;;;;;;;4.15;89.64;98447.91;4997048;28;20386;-81
2023/12/20 08:29:35;;;;;;;21.98;5.25;;;;;;;4.12;90.06;98458.09;5006602;28;20080;-82
2023/12/20 08:32:00;;;;;;;14.80;5.65;;;;;;;4.22;90.07;98463.69;5002619;28;20084;-82
2023/12/20 08:34:25;;;;;;;21.88;6.05;;;;;;;4.26;88.80;98443.78;5010376;28;20057;-82
2023/12/20 08:36:53;;;;;;;16.88;5.28;;;;;;;4.24;89.68;98445.78;4970608;28;20053;-83
2023/12/20 08:39:19;;;;;;;15.32;5.65;;;;;;;4.25;89.29;98455.34;4995655;28;20064;-81
2023/12/20 08:41:44;;;;;;;16.15;5.15;;;;;;;4.35;89.17;98463.56;5010666;28;20714;-82
2023/12/20 08:44:10;;;;;;;21.10;5.28;;;;;;;4.32;88.81;98459.56;5005171;28;20045;-82
2023/12/20 08:46:36;;;;;;;21.08;5.57;;;;;;;4.25;89.19;98447.44;4988737;28;20040;-82
2023/12/20 08:49:01;;;;;;;25.50;5.88;;;;;;;4.35;89.43;98447.72;5010584;28;20042;-82
2023/12/20 08:51:27;;;;;;;17.52;6.43;;;;;;;4.41;88.96;98446.88;5012861;28;20473;-81
2023/12/20 08:53:53;;;;;;;11.98;6.53;;;;;;;4.41;88.65;98439.72;4992326;28;20034;-82
2023/12/20 08:56:18;;;;;;;12.65;5.38;;;;;;;4.45;88.79;98455.97;5009300;28;20049;-82
2023/12/20 08:58:46;;;;;;;18.33;5.95;;;;;;;4.41;88.86;98452.94;5012445;28;20563;-82
2023/12/20 09:01:12;;;;;;;19.08;5.25;;;;;;;4.39;89.50;98444.44;5003127;28;20031;-82
2023/12/20 09:03:37;;;;;;;15.02;4.85;;;;;;;4.29;88.91;98438.84;5011763;28;20045;-81
2023/12/20 09:06:03;;;;;;;17.98;5.57;;;;;;;4.38;89.50;98447.28;5007570;28;21267;-82
2023/12/20 09:08:28;;;;;;;14.95;5.97;;;;;;;4.42;90.11;98449.28;4987232;28;20065;-82
2023/12/20 09:10:54;;;;;;;15.18;5.80;;;;;;;4.38;89.05;98436.72;5024579;28;20038;-82
2023/12/20 09:13:20;;;;;;;19.10;5.10;;;;;;;4.28;89.71;98429.28;5010204;28;20030;-81
2023/12/20 09:15:45;;;;;;;15.23;5.07;;;;;;;4.32;90.35;98430.50;5006050;28;20121;-82
2023/12/20 09:18:11;;;;;;;12.70;5.30;;;;;;;4.22;90.03;98432.00;5013268;28;20125;-82
2023/12/20 09:20:36;;;;;;;14.38;6.72;;;;;;;4.25;89.93;98431.56;5010582;28;20042;-82
2023/12/20 09:23:02;;;;;;;18.00;5.85;;;;;;;4.38;89.73;98455.22;5009001;28;20070;-82
2023/12/20 09:25:29;;;;;;;15.18;5.25;;;;;;;4.40;89.68;98453.16;4979980;28;20034;-82
2023/12/20 09:27:54;;;;;;;18.33;5.03;;;;;;;4.37;89.23;98441.19;4980230;28;20049;-82
2023/12/20 09:30:20;;;;;;;12.80;4.65;;;;;;;4.37;90.41;98462.34;5009693;28;20070;-82
2023/12/20 09:32:45;;;;;;;14.90;4.95;;;;;;;4.33;90.14;98447.13;4992748;28;20072;-82
2023/12/20 09:35:10;;;;;;;9.25;4.97;;;;;;;4.43;90.29;98469.38;4979900;28;20035;-81
2023/12/20 09:37:36;;;;;;;16.35;4.80;;;;;;;4.34;90.00;98446.13;4997018;28;20069;-82
2023/12/20 09:40:02;;;;;;;19.30;4.80;;;;;;;4.47;90.10;98456.56;5011829;28;20053;-82
2023/12/20 09:42:46;;;;;;;12.82;5.07;;;;;;;4.34;90.24;98435.56;5015270;28;20065;-82
2023/12/20 09:45:15;;;;;;;12.73;4.93;;;;;;;4.35;89.93;98434.50;5013820;28;20030;-81
2023/12/20 09:47:42;;;;;;;20.35;5.47;;;;;;;4.38;90.75;98448.13;5008845;28;20034;-82
2023/12/20 09:50:08;;;;;;;9.07;5.05;;;;;;;4.27;90.38;98440.91;5011798;28;20066;-82
2023/12/20 09:52:36;;;;;;;8.25;3.92;;;;;;;4.34;90.42;98431.09;4988505;28;20029;-81
2023/12/20 09:55:05;;;;;;;9.88;4.63;;;;;;;4.43;89.86;98450.09;5012008;28;20034;-82
2023/12/20 09:57:31;;;;;;;13.52;4.63;;;;;;;4.41;90.32;98415.94;5007787;28;20030;-82
2023/12/20 09:59:57;;;;;;;11.40;4.53;;;;;;;4.47;90.25;98438.06;5010062;28;20029;-82
2023/12/20 10:02:27;;;;;;;13.80;5.47;;;;;;;4.34;89.92;98420.53;4994380;28;20470;-82
2023/12/20 10:04:52;;;;;;;14.95;5.32;;;;;;;4.48;90.57;98431.72;5008416;28;20525;-82
2023/12/20 10:07:18;;;;;;;18.02;5.15;;;;;;;4.34;90.21;98414.44;5008758;28;20026;-83
2023/12/20 10:09:44;;;;;;;13.93;5.72;;;;;;;4.41;90.35;98410.66;4994063;28;20087;-82
2023/12/20 10:12:09;;;;;;;13.65;6.53;;;;;;;4.42;90.20;98409.66;5010936;28;20104;-81
2023/12/20 10:14:34;;;;;;;14.30;5.80;;;;;;;4.43;90.29;98405.19;5008555;28;20040;-82
2023/12/20 10:17:04;;;;;;;11.32;4.82;;;;;;;4.35;90.52;98393.06;5012440;28;20640;-83
2023/12/20 10:19:30;;;;;;;19.70;5.78;;;;;;;4.44;90.08;98399.66;5017643;28;20053;-83
2023/12/20 10:21:56;;;;;;;11.40;4.70;;;;;;;4.49;90.70;98402.47;5011231;28;20041;-82
2023/12/20 10:24:21;;;;;;;13.57;5.70;;;;;;;4.42;90.81;98391.16;5011426;28;20029;-82
2023/12/20 10:26:46;;;;;;;9.98;5.50;;;;;;;4.44;90.19;98386.47;5010505;28;20528;-82
2023/12/20 10:29:12;;;;;;;14.25;5.22;;;;;;;4.43;90.62;98376.13;4974423;28;20113;-82
2023/12/20 10:31:40;;;;;;;16.17;6.50;;;;;;;4.53;90.30;98379.03;4996598;28;20431;-82
2023/12/20 10:34:05;;;;;;;13.85;4.63;;;;;;;4.59;90.00;98380.78;4997243;28;20060;-83
2023/12/20 10:36:33;;;;;;;17.00;5.80;;;;;;;4.62;90.00;98377.72;4986251;28;20065;-82
2023/12/20 10:38:59;;;;;;;10.68;3.50;;;;;;;4.55;90.34;98388.38;5006232;28;20026;-82
2023/12/20 10:41:29;;;;;;;11.40;4.47;;;;;;;4.50;90.79;98363.63;5014806;28;20033;-82
2023/12/20 10:44:02;;;;;;;12.15;4.70;;;;;;;4.71;90.54;98375.56;4992588;28;20502;-82
2023/12/20 10:46:29;;;;;;;13.80;6.55;;;;;;;4.56;90.53;98366.19;5009120;28;20026;-82
2023/12/20 10:48:56;;;;;;;14.18;4.78;;;;;;;4.62;90.40;98371.63;4988395;28;20057;-82
2023/12/20 10:51:22;;;;;;;13.32;4.40;;;;;;;4.70;90.28;98366.84;5012752;28;20037;-82
2023/12/20 10:53:49;;;;;;;14.35;5.60;;;;;;;4.71;90.21;98367.66;5014227;28;20112;-82
2023/12/20 10:56:19;;;;;;;9.70;3.88;;;;;;;4.65;89.97;98360.63;5014350;28;20053;-82
2023/12/20 10:58:49;;;;;;;12.75;4.00;;;;;;;4.60;89.97;98349.91;5012477;28;20022;-82
2023/12/20 11:01:16;;;;;;;9.98;5.43;;;;;;;4.64;90.45;98349.22;5012990;28;20034;-83
2023/12/20 11:03:49;;;;;;;16.27;4.70;;;;;;;4.62;90.15;98348.66;5012866;28;20038;-81
2023/12/20 11:06:23;;;;;;;10.50;4.07;;;;;;;4.50;90.85;98340.66;5010940;28;20033;-81
2023/12/20 11:09:09;;;;;;;8.23;4.65;;;;;;;4.57;90.03;98345.84;5011742;28;20128;-82
2023/12/20 11:11:51;;;;;;;7.43;4.20;;;;;;;4.60;90.31;98349.91;5012962;28;20017;-82
2023/12/20 11:14:33;;;;;;;7.30;4.22;;;;;;;4.53;90.08;98334.13;5013397;28;20382;-82
2023/12/20 11:17:07;;;;;;;14.65;4.13;;;;;;;4.50;90.36;98324.78;5010892;28;20026;-82
2023/12/20 11:19:32;;;;;;;13.30;4.07;;;;;;;4.62;91.03;98332.78;5011915;28;20085;-82
2023/12/20 11:21:57;;;;;;;7.00;3.50;;;;;;;4.48;91.05;98318.13;5012570;28;20077;-82
2023/12/20 11:24:25;;;;;;;10.18;4.13;;;;;;;4.52;90.33;98312.16;5013669;28;20029;-82
2023/12/20 11:26:56;;;;;;;11.00;4.18;;;;;;;4.50;90.34;98302.84;4995571;28;20029;-83
2023/12/20 11:29:35;;;;;;;9.43;4.30;;;;;;;4.63;90.13;98315.09;5012520;28;20234;-82